Airport View

Enter AWOS ICAO identifier for current METAR.

ex. KFNL

KGNB 251529Z AUTO 27009KT 10SM BKN070 OVC080 07/M03 A2974 RMK AO2 T00681030

25 Oct 2020 15:54

Frequency: 119.925

Phone: 970-887-1803

Other Area AWOS: K0CO - K20V - KBDU - KLMO

TAF KBJC 251120Z 2512/2612 01010KT 3SM -SN BR OVC008 FM251300 36012G18KT 2SM -SN BR OVC008 FM251700 36010KT 1SM -SN BR OVC006 TEMPO 2520/2524 1/2SM SN VV002 FM261000 02008KT 2SM -SN BR BKN008 OVC012